CheckWX is a tool to help pilots better visualize weather data.  It is not intended as a substitute for an official pre-flight weather briefing.

01:54:11 UTC

ZBYN TAF
Taiyuan Wusu Airport
Taiyuan, China
TAF ZBYN 181902Z 1900/1924 21004MPS 6000 NSC TX19/1907Z TN05/1922Z BECMG 1910/1911 2500 -RA BR

Mar-19@
00:00 UTC

Mar-19 @ 00:00 UTC

Mar-19@
10:00 UTC

Mar-19 @ 10:00 UTC

TAF ZBYN 181902Z 1900/1924 21004MPS 6000 NSC TX19/1907Z TN05/1922Z
Wind
  • 210° at 8 KTS
Cloud Levels
  • No significant clouds

Mar-19@
10:00 UTC

Mar-19 @ 10:00 UTC

Mar-20@
00:00 UTC

Mar-20 @ 00:00 UTC

BECMG 1910/1911 2500 -RA BR

Becoming

Becoming Conditions expected by Tue, Mar 19, 2019 @ 11:00 UTC

Wind
  • 210° at 8 KTS
Conditions
Light Rain, Mist
Cloud Levels
  • No significant clouds